Beauval, Canada
Current Conditions -  °F | °C
As of 12:00 PM on Friday 31 Oct 2014 (Local Time) from CYVT Reporting Station
Overcast Overcast  
Wind Chill: -3°   Ceiling: 1100
Heat Index:   Visibility: 12mi
Dew Point: -1°   Wind: 9mph
Humidity: 87%   Direction: 170°S
Pressure: 29.74"   Gusts: NA
Location:  55.15°N, 107.62°W
Report Text: CYVT 311800Z 17008KT 12SM OVC011 01/M01 A2974 RMK SC8 SLP096
Loading
Personal Weather Stations






























Interactive Weather Map
Tropical Storm Tracking
New forecast layout! Learn more

10-Day Weather Forecast

Advertisements
Track Severe Weather on mobile